createdAt,value
2018-07-22T00:02:26.108Z,72.33
2018-07-22T00:04:54.754Z,76.83
2018-07-22T00:07:23.119Z,73.87
2018-07-22T00:09:51.546Z,76.87
2018-07-22T00:12:20.042Z,70.30
2018-07-22T00:14:48.610Z,69.70
2018-07-22T00:17:17.204Z,76.93
2018-07-22T00:19:45.763Z,74.23
2018-07-22T00:22:14.230Z,82.80
2018-07-22T00:24:42.906Z,76.63
2018-07-22T00:27:11.561Z,88.97
2018-07-22T00:29:39.963Z,86.13
2018-07-22T00:32:09.292Z,85.37
2018-07-22T00:34:37.922Z,85.80
2018-07-22T00:37:06.561Z,80.70
2018-07-22T00:39:35.423Z,79.10
2018-07-22T00:42:03.827Z,92.10
2018-07-22T00:44:32.229Z,87.17
2018-07-22T00:47:01.775Z,84.07
2018-07-22T00:49:30.181Z,87.13
2018-07-22T00:51:59.839Z,88.43
2018-07-22T00:54:29.175Z,86.30
2018-07-22T00:56:57.575Z,86.47
2018-07-22T00:59:26.300Z,93.93
2018-07-22T01:01:55.018Z,90.03
2018-07-22T01:04:23.495Z,89.87
2018-07-22T01:06:52.285Z,95.13
2018-07-22T01:09:20.748Z,99.80
2018-07-22T01:11:49.216Z,104.60
2018-07-22T01:14:17.625Z,92.13
2018-07-22T01:16:46.084Z,90.00
2018-07-22T01:19:14.576Z,100.43
2018-07-22T01:21:43.059Z,92.60
2018-07-22T01:24:11.673Z,92.43
2018-07-22T01:26:40.298Z,84.70
2018-07-22T01:29:09.051Z,86.40
2018-07-22T01:31:37.795Z,81.23
2018-07-22T01:34:06.902Z,80.97
2018-07-22T01:36:35.239Z,67.67
2018-07-22T01:39:05.742Z,66.07
2018-07-22T01:41:34.144Z,71.90
2018-07-22T01:44:02.501Z,82.00
2018-07-22T01:46:30.876Z,73.53
2018-07-22T01:48:59.925Z,63.77
2018-07-22T01:51:28.320Z,67.67
2018-07-22T01:53:56.804Z,70.67
2018-07-22T01:56:25.149Z,64.37
2018-07-22T01:58:53.771Z,67.83
2018-07-22T02:01:21.847Z,80.50
2018-07-22T02:03:50.334Z,70.23
2018-07-22T02:06:18.830Z,72.80
2018-07-22T02:08:47.323Z,74.90
2018-07-22T02:11:15.769Z,65.57
2018-07-22T02:13:44.241Z,64.27
2018-07-22T02:16:13.309Z,71.93
2018-07-22T02:18:41.852Z,71.30
2018-07-22T02:21:10.217Z,62.00
2018-07-22T02:23:39.053Z,63.40
2018-07-22T02:26:07.196Z,55.70
2018-07-22T02:28:35.746Z,63.80
2018-07-22T02:31:04.464Z,66.03
2018-07-22T02:33:33.304Z,65.13
2018-07-22T02:36:01.640Z,57.10
2018-07-22T02:38:30.073Z,62.67
2018-07-22T02:40:58.985Z,57.70
2018-07-22T02:43:27.828Z,60.73
2018-07-22T02:45:56.384Z,66.30
2018-07-22T02:48:25.862Z,59.83
2018-07-22T02:50:54.467Z,57.33
2018-07-22T02:53:23.103Z,61.90
2018-07-22T02:55:51.536Z,59.90
2018-07-22T02:58:20.026Z,59.53
2018-07-22T03:00:48.389Z,68.57
2018-07-22T03:03:17.006Z,60.10
2018-07-22T03:05:45.410Z,59.47
2018-07-22T03:08:13.802Z,78.93
2018-07-22T03:10:42.182Z,72.23
2018-07-22T03:13:10.719Z,67.00
2018-07-22T03:15:39.077Z,68.23
2018-07-22T03:18:07.484Z,77.23
2018-07-22T03:20:35.954Z,73.87
2018-07-22T03:23:04.339Z,70.50
2018-07-22T03:25:32.772Z,69.13
2018-07-22T03:28:01.239Z,81.00
2018-07-22T03:30:29.888Z,73.80
2018-07-22T03:32:59.130Z,82.27
2018-07-22T03:35:28.548Z,74.43
2018-07-22T03:37:56.860Z,73.70
2018-07-22T03:40:25.363Z,75.63
2018-07-22T03:42:53.729Z,82.23
2018-07-22T03:45:22.761Z,78.30
2018-07-22T03:47:51.048Z,80.93
2018-07-22T03:50:19.478Z,72.30
2018-07-22T03:52:47.856Z,78.30
2018-07-22T03:55:16.385Z,81.33
2018-07-22T03:57:44.746Z,70.93
2018-07-22T04:00:13.196Z,78.50
2018-07-22T04:02:41.580Z,80.83
2018-07-22T04:05:10.058Z,78.27
2018-07-22T04:07:38.458Z,87.90
2018-07-22T04:10:06.913Z,94.40
2018-07-22T04:12:35.422Z,72.30
2018-07-22T04:15:03.889Z,71.97
2018-07-22T04:17:32.517Z,76.73
2018-07-22T04:20:01.197Z,65.10
2018-07-22T04:22:29.567Z,66.03
2018-07-22T04:24:58.209Z,70.13
2018-07-22T04:27:27.038Z,69.20
2018-07-22T04:29:55.481Z,70.57
2018-07-22T04:32:24.593Z,59.00
2018-07-22T04:34:53.763Z,59.93
2018-07-22T04:37:22.134Z,53.60
2018-07-22T04:39:51.089Z,57.00
2018-07-22T04:42:19.500Z,51.70
2018-07-22T04:44:48.053Z,52.87
2018-07-22T04:47:16.524Z,48.77
2018-07-22T04:49:44.662Z,53.07
2018-07-22T04:52:12.997Z,48.43
2018-07-22T04:54:41.347Z,47.47
2018-07-22T04:57:09.852Z,49.77
2018-07-22T04:59:38.312Z,42.83
2018-07-22T05:02:06.696Z,45.03
2018-07-22T05:04:36.856Z,42.43
2018-07-22T05:07:05.846Z,43.20
2018-07-22T05:09:34.233Z,42.27
2018-07-22T05:12:02.875Z,37.40
2018-07-22T05:14:31.295Z,47.53
2018-07-22T05:16:59.749Z,39.17
2018-07-22T05:19:28.085Z,33.70
2018-07-22T05:21:56.486Z,38.50
2018-07-22T05:24:24.921Z,34.30
2018-07-22T05:26:53.352Z,36.53
2018-07-22T05:29:21.742Z,31.53
2018-07-22T05:31:50.412Z,32.47
2018-07-22T05:34:18.790Z,42.57
2018-07-22T05:36:47.286Z,51.10
2018-07-22T05:39:15.694Z,37.40
2018-07-22T05:41:44.140Z,30.43
2018-07-22T05:44:12.571Z,30.70
2018-07-22T05:46:41.039Z,30.00
2018-07-22T05:49:09.394Z,27.50
2018-07-22T05:51:37.795Z,32.07
2018-07-22T05:54:06.285Z,27.13
2018-07-22T05:56:34.602Z,33.47
2018-07-22T05:59:03.090Z,30.60
2018-07-22T06:01:31.845Z,41.70
2018-07-22T06:04:00.336Z,25.67
2018-07-22T06:06:28.924Z,32.90
2018-07-22T06:08:57.363Z,32.13
2018-07-22T06:11:25.820Z,27.60
2018-07-22T06:13:54.286Z,29.50
2018-07-22T06:16:23.298Z,29.17
2018-07-22T06:18:51.736Z,29.00
2018-07-22T06:21:21.247Z,25.10
2018-07-22T06:23:49.654Z,28.50
2018-07-22T06:26:19.257Z,25.60
2018-07-22T06:28:48.123Z,36.57
2018-07-22T06:31:16.852Z,34.03
2018-07-22T06:33:45.511Z,30.87
2018-07-22T06:36:13.944Z,34.27
2018-07-22T06:38:42.640Z,30.93
2018-07-22T06:41:11.679Z,38.77
2018-07-22T06:43:40.199Z,27.70
2018-07-22T06:46:09.286Z,29.23
2018-07-22T06:48:37.996Z,27.53
2018-07-22T06:51:08.239Z,32.80
2018-07-22T06:53:36.754Z,26.27
2018-07-22T06:56:05.251Z,28.20
2018-07-22T06:58:33.615Z,25.43
2018-07-22T07:01:02.192Z,28.87
2018-07-22T07:03:30.621Z,25.90
2018-07-22T07:05:59.200Z,25.63
2018-07-22T07:08:28.045Z,29.73
2018-07-22T07:10:56.424Z,29.50
2018-07-22T07:13:24.879Z,25.00
2018-07-22T07:15:53.459Z,23.20
2018-07-22T07:18:21.968Z,25.50
2018-07-22T07:20:50.551Z,25.93
2018-07-22T07:23:18.832Z,28.60
2018-07-22T07:25:47.314Z,30.23
2018-07-22T07:28:15.873Z,33.43
2018-07-22T07:30:44.742Z,26.83
2018-07-22T07:33:13.786Z,30.60
2018-07-22T07:35:42.178Z,29.80
2018-07-22T07:38:11.322Z,26.00
2018-07-22T07:40:39.825Z,28.23
2018-07-22T07:43:08.297Z,25.40
2018-07-22T07:45:37.731Z,24.10
2018-07-22T07:48:07.030Z,23.20
2018-07-22T07:50:35.796Z,23.70
2018-07-22T07:53:04.233Z,26.20
2018-07-22T07:55:32.738Z,23.23
2018-07-22T07:58:01.332Z,21.13
2018-07-22T08:00:30.689Z,19.40
2018-07-22T08:02:59.644Z,20.10
2018-07-22T08:05:29.075Z,17.77
2018-07-22T08:07:57.741Z,20.43
2018-07-22T08:10:26.506Z,18.73
2018-07-22T08:12:55.060Z,19.50
2018-07-22T08:15:23.588Z,20.30
2018-07-22T08:17:52.169Z,22.40
2018-07-22T08:20:20.660Z,17.53
2018-07-22T08:22:49.156Z,22.83
2018-07-22T08:25:17.570Z,23.80
2018-07-22T08:27:47.452Z,16.50
2018-07-22T08:30:16.671Z,16.97
2018-07-22T08:32:45.591Z,15.03
2018-07-22T08:35:14.561Z,14.93
2018-07-22T08:37:44.989Z,15.70
2018-07-22T08:40:15.003Z,15.80
2018-07-22T08:42:43.680Z,14.70
2018-07-22T08:45:12.349Z,15.07
2018-07-22T08:47:41.581Z,15.33
2018-07-22T08:50:10.264Z,16.90
2018-07-22T08:52:39.314Z,14.40
2018-07-22T08:55:09.268Z,21.23
2018-07-22T08:57:37.916Z,13.13
2018-07-22T09:00:07.258Z,13.53
2018-07-22T09:02:38.058Z,21.93
2018-07-22T09:05:07.638Z,14.83
2018-07-22T09:07:36.619Z,13.30
2018-07-22T09:10:05.269Z,14.00
2018-07-22T09:12:33.703Z,12.90
2018-07-22T09:15:03.853Z,12.53
2018-07-22T09:17:33.623Z,11.47
2018-07-22T09:20:02.583Z,12.23
2018-07-22T09:22:31.585Z,10.70
2018-07-22T09:25:00.449Z,11.83
2018-07-22T09:27:29.850Z,11.33
2018-07-22T09:29:59.662Z,10.97
2018-07-22T09:32:29.003Z,10.43
2018-07-22T09:34:57.773Z,9.97
2018-07-22T09:37:26.748Z,9.00
2018-07-22T09:39:55.148Z,9.57
2018-07-22T09:42:23.918Z,10.07
2018-07-22T09:44:52.700Z,11.07
2018-07-22T09:47:21.918Z,11.00
2018-07-22T09:49:51.309Z,9.40
2018-07-22T09:52:20.496Z,8.00
2018-07-22T09:54:50.122Z,8.30
2018-07-22T09:57:19.472Z,16.27
2018-07-22T09:59:48.292Z,9.53
2018-07-22T10:02:16.733Z,8.00
2018-07-22T10:04:45.892Z,10.53
2018-07-22T10:07:14.747Z,8.40
2018-07-22T10:09:46.432Z,7.93
2018-07-22T10:12:16.711Z,8.50
2018-07-22T10:14:47.314Z,8.00
2018-07-22T10:17:16.470Z,8.37
2018-07-22T10:19:45.145Z,8.87
2018-07-22T10:22:13.604Z,7.50
2018-07-22T10:24:42.220Z,7.63
2018-07-22T10:27:11.150Z,17.30
2018-07-22T10:29:40.163Z,7.27
2018-07-22T10:32:09.900Z,19.73
2018-07-22T10:34:43.169Z,6.43
2018-07-22T10:37:11.946Z,5.50
2018-07-22T10:39:40.821Z,7.20
2018-07-22T10:42:10.868Z,6.17
2018-07-22T10:44:40.179Z,5.37
2018-07-22T10:47:08.519Z,5.03
2018-07-22T10:49:37.208Z,5.67
2018-07-22T10:52:05.909Z,5.53
2018-07-22T10:54:36.219Z,11.33
2018-07-22T10:57:05.972Z,6.13
2018-07-22T10:59:35.429Z,4.23
2018-07-22T11:02:05.579Z,5.40
2018-07-22T11:04:34.076Z,7.60
2018-07-22T11:07:04.172Z,5.37
2018-07-22T11:09:32.547Z,4.60
2018-07-22T11:12:02.690Z,5.37
2018-07-22T11:14:31.637Z,4.00
2018-07-22T11:17:00.529Z,8.30
2018-07-22T11:19:29.680Z,8.00
2018-07-22T11:21:58.563Z,4.50
2018-07-22T11:24:28.784Z,4.77
2018-07-22T11:26:58.537Z,5.20
2018-07-22T11:29:27.143Z,5.00
2018-07-22T11:31:56.021Z,4.80
2018-07-22T11:34:25.440Z,7.03
2018-07-22T11:36:55.368Z,6.10
2018-07-22T11:39:25.058Z,5.27
2018-07-22T11:41:54.017Z,3.73
2018-07-22T11:44:22.621Z,5.22
2018-07-22T11:46:53.522Z,4.80
2018-07-22T11:49:22.397Z,4.97
2018-07-22T11:51:51.274Z,5.00
2018-07-22T11:54:20.527Z,8.00
2018-07-22T11:56:49.244Z,3.02
2018-07-22T11:59:19.295Z,7.35
2018-07-22T12:01:48.695Z,4.00
2018-07-22T12:04:18.364Z,6.72
2018-07-22T12:06:46.794Z,3.67
2018-07-22T12:09:16.327Z,3.22
2018-07-22T12:11:46.222Z,4.95
2018-07-22T12:14:14.956Z,3.70
2018-07-22T12:16:43.919Z,7.40
2018-07-22T12:19:13.350Z,3.52
2018-07-22T12:21:41.902Z,5.17
2018-07-22T12:24:10.350Z,3.95
2018-07-22T12:26:38.875Z,4.60
2018-07-22T12:29:07.555Z,4.50
2018-07-22T12:31:36.482Z,4.17
2018-07-22T12:34:05.470Z,3.40
2018-07-22T12:36:33.951Z,3.10
2018-07-22T12:39:03.185Z,4.07
2018-07-22T12:41:31.814Z,4.30
2018-07-22T12:44:01.154Z,4.50
2018-07-22T12:46:29.727Z,3.73
2018-07-22T12:48:58.675Z,6.47
2018-07-22T12:51:27.230Z,4.37
2018-07-22T12:53:57.163Z,7.57
2018-07-22T12:56:26.306Z,4.10
2018-07-22T12:58:55.443Z,4.37
2018-07-22T13:01:24.126Z,4.90
2018-07-22T13:03:52.649Z,4.20
2018-07-22T13:06:21.117Z,5.33
2018-07-22T13:08:49.851Z,4.20
2018-07-22T13:11:19.340Z,4.20
2018-07-22T13:13:47.706Z,4.63
2018-07-22T13:16:16.510Z,4.47
2018-07-22T13:18:45.068Z,4.93
2018-07-22T13:21:13.540Z,5.97
2018-07-22T13:23:42.176Z,6.70
2018-07-22T13:26:10.799Z,6.10
2018-07-22T13:28:39.404Z,5.07
2018-07-22T13:31:08.276Z,5.27
2018-07-22T13:33:36.982Z,6.13
2018-07-22T13:36:05.582Z,5.20
2018-07-22T13:38:34.253Z,7.03
2018-07-22T13:41:02.932Z,6.80
2018-07-22T13:43:31.490Z,5.93
2018-07-22T13:45:59.981Z,6.10
2018-07-22T13:48:28.474Z,5.90
2018-07-22T13:50:57.025Z,5.40
2018-07-22T13:53:25.434Z,6.93
2018-07-22T13:55:54.022Z,6.30
2018-07-22T13:58:22.478Z,6.37
2018-07-22T14:00:51.189Z,5.97
2018-07-22T14:03:21.094Z,6.40
2018-07-22T14:05:49.612Z,7.90
2018-07-22T14:08:18.321Z,5.87
2018-07-22T14:10:47.144Z,6.07
2018-07-22T14:13:15.677Z,5.83
2018-07-22T14:15:44.513Z,5.03
2018-07-22T14:18:13.524Z,5.67
2018-07-22T14:20:42.768Z,10.10
2018-07-22T14:23:11.911Z,5.03
2018-07-22T14:25:40.539Z,5.43
2018-07-22T14:28:10.280Z,5.40
2018-07-22T14:30:39.721Z,5.07
2018-07-22T14:33:09.604Z,4.80
2018-07-22T14:35:38.452Z,5.20
2018-07-22T14:38:07.122Z,19.63
2018-07-22T14:40:37.271Z,5.53
2018-07-22T14:43:06.858Z,5.10
2018-07-22T14:45:36.197Z,5.23
2018-07-22T14:48:04.770Z,6.23
2018-07-22T14:50:34.281Z,4.77
2018-07-22T14:53:02.608Z,6.20
2018-07-22T14:55:31.328Z,5.80
2018-07-22T14:58:00.875Z,5.97
2018-07-22T15:00:29.359Z,7.57
2018-07-22T15:02:58.452Z,10.33
2018-07-22T15:05:26.850Z,6.07
2018-07-22T15:07:56.261Z,5.70
2018-07-22T15:10:24.865Z,7.00
2018-07-22T15:12:53.273Z,9.80
2018-07-22T15:15:21.729Z,6.37
2018-07-22T15:17:50.852Z,6.07
2018-07-22T15:20:19.277Z,10.23
2018-07-22T15:22:48.270Z,5.87
2018-07-22T15:25:16.986Z,13.50
2018-07-22T15:27:45.650Z,5.13
2018-07-22T15:30:14.564Z,6.40
2018-07-22T15:32:43.197Z,6.03
2018-07-22T15:35:12.804Z,6.30
2018-07-22T15:37:41.212Z,6.33
2018-07-22T15:40:10.575Z,7.67
2018-07-22T15:42:39.087Z,6.23
2018-07-22T15:45:07.510Z,5.80
2018-07-22T15:47:35.950Z,5.83
2018-07-22T15:50:05.875Z,5.53
2018-07-22T15:52:34.692Z,5.87
2018-07-22T15:55:03.562Z,4.60
2018-07-22T15:57:31.997Z,5.37
2018-07-22T16:00:00.396Z,5.57
2018-07-22T16:02:28.823Z,5.67
2018-07-22T16:04:57.443Z,5.17
2018-07-22T16:07:25.896Z,6.30
2018-07-22T16:09:54.528Z,5.47
2018-07-22T16:12:22.975Z,6.07
2018-07-22T16:14:51.696Z,5.37
2018-07-22T16:17:21.174Z,4.70
2018-07-22T16:19:49.537Z,4.93
2018-07-22T16:22:18.201Z,4.57
2018-07-22T16:24:46.839Z,4.43
2018-07-22T16:27:15.261Z,5.40
2018-07-22T16:29:43.776Z,5.23
2018-07-22T16:32:18.769Z,5.27
2018-07-22T16:34:48.782Z,4.60
2018-07-22T16:37:17.380Z,6.70
2018-07-22T16:39:45.976Z,5.13
2018-07-22T16:42:14.588Z,4.87
2018-07-22T16:44:44.082Z,5.37
2018-07-22T16:47:12.523Z,5.00
2018-07-22T16:49:41.281Z,5.73
2018-07-22T16:52:09.674Z,4.97
2018-07-22T16:54:38.292Z,5.10
2018-07-22T16:57:06.860Z,5.70
2018-07-22T16:59:36.143Z,9.43
2018-07-22T17:02:04.660Z,5.50
2018-07-22T17:04:36.752Z,4.80
2018-07-22T17:07:05.142Z,7.20
2018-07-22T17:09:33.938Z,5.40
2018-07-22T17:12:02.356Z,6.70
2018-07-22T17:14:30.739Z,8.53
2018-07-22T17:16:59.395Z,7.67
2018-07-22T17:19:28.403Z,8.07
2018-07-22T17:21:56.853Z,5.40
2018-07-22T17:24:25.802Z,6.57
2018-07-22T17:26:54.277Z,5.50
2018-07-22T17:29:22.862Z,5.33
2018-07-22T17:31:51.567Z,5.80
2018-07-22T17:34:20.077Z,5.57
2018-07-22T17:36:48.701Z,6.17
2018-07-22T17:39:17.802Z,5.07
2018-07-22T17:41:46.455Z,5.90
2018-07-22T17:44:16.017Z,5.77
2018-07-22T17:46:44.471Z,6.13
2018-07-22T17:49:13.699Z,4.97
2018-07-22T17:51:43.403Z,5.40
2018-07-22T17:54:11.908Z,6.00
2018-07-22T17:56:40.770Z,9.13
2018-07-22T17:59:09.279Z,6.07
2018-07-22T18:01:37.630Z,6.10
2018-07-22T18:04:06.950Z,7.13
2018-07-22T18:06:36.885Z,6.53
2018-07-22T18:09:07.791Z,5.93
2018-07-22T18:11:37.432Z,7.07
2018-07-22T18:14:05.948Z,6.30
2018-07-22T18:16:35.025Z,6.40
2018-07-22T18:19:03.327Z,7.37
2018-07-22T18:21:32.572Z,7.33
2018-07-22T18:24:01.559Z,6.50
2018-07-22T18:26:30.548Z,7.20
2018-07-22T18:28:58.973Z,11.13
2018-07-22T18:31:27.787Z,10.93
2018-07-22T18:33:57.911Z,12.37
2018-07-22T18:36:30.500Z,7.17
2018-07-22T18:38:59.952Z,7.00
2018-07-22T18:41:28.805Z,6.07
2018-07-22T18:43:58.029Z,7.90
2018-07-22T18:46:26.681Z,6.63
2018-07-22T18:48:55.251Z,7.50
2018-07-22T18:51:23.832Z,10.83
2018-07-22T18:53:53.910Z,7.63
2018-07-22T18:56:22.690Z,8.30
2018-07-22T18:58:51.236Z,8.70
2018-07-22T19:01:20.126Z,7.60
2018-07-22T19:03:48.917Z,6.93
2018-07-22T19:06:17.768Z,13.33
2018-07-22T19:08:46.941Z,7.70
2018-07-22T19:11:15.548Z,7.07
2018-07-22T19:13:44.386Z,6.60
2018-07-22T19:16:12.896Z,8.37
2018-07-22T19:18:42.769Z,7.77
2018-07-22T19:21:11.723Z,7.03
2018-07-22T19:23:40.450Z,7.50
2018-07-22T19:26:09.764Z,12.60
2018-07-22T19:28:38.563Z,10.50
2018-07-22T19:31:07.232Z,10.00
2018-07-22T19:33:35.823Z,8.13
2018-07-22T19:36:06.157Z,9.27
2018-07-22T19:38:34.735Z,8.03
2018-07-22T19:41:03.350Z,7.47
2018-07-22T19:43:31.936Z,8.30
2018-07-22T19:46:01.120Z,9.90
2018-07-22T19:48:29.717Z,10.60
2018-07-22T19:50:58.404Z,10.27
2018-07-22T19:53:27.032Z,11.50
2018-07-22T19:55:55.656Z,15.87
2018-07-22T19:58:24.331Z,10.07
2018-07-22T20:00:52.842Z,11.37
2018-07-22T20:03:22.212Z,11.30
2018-07-22T20:05:50.703Z,13.40
2018-07-22T20:08:19.491Z,10.23
2018-07-22T20:10:48.041Z,10.87
2018-07-22T20:13:16.548Z,11.13
2018-07-22T20:15:45.160Z,11.60
2018-07-22T20:18:13.904Z,11.43
2018-07-22T20:20:42.508Z,14.03
2018-07-22T20:23:11.168Z,15.90
2018-07-22T20:25:39.707Z,10.73
2018-07-22T20:28:08.102Z,11.33
2018-07-22T20:30:36.716Z,11.93
2018-07-22T20:33:05.971Z,13.43
2018-07-22T20:35:34.498Z,10.93
2018-07-22T20:38:03.109Z,11.00
2018-07-22T20:40:31.792Z,11.53
2018-07-22T20:43:00.628Z,12.93
2018-07-22T20:45:29.045Z,13.23
2018-07-22T20:47:57.463Z,11.53
2018-07-22T20:50:25.849Z,10.93
2018-07-22T20:52:54.330Z,11.17
2018-07-22T20:55:23.138Z,11.73
2018-07-22T20:57:51.513Z,10.93
2018-07-22T21:00:20.146Z,9.97
2018-07-22T21:02:49.019Z,9.73
2018-07-22T21:05:17.478Z,10.57
2018-07-22T21:07:45.866Z,11.33
2018-07-22T21:10:14.378Z,10.53
2018-07-22T21:12:52.650Z,10.70
2018-07-22T21:15:21.378Z,11.00
2018-07-22T21:17:50.703Z,10.63
2018-07-22T21:20:20.013Z,11.27
2018-07-22T21:22:48.483Z,11.37
2018-07-22T21:25:17.397Z,12.53
2018-07-22T21:27:46.056Z,21.73
2018-07-22T21:30:14.857Z,15.47
2018-07-22T21:32:43.459Z,13.30
2018-07-22T21:35:11.800Z,12.73
2018-07-22T21:37:40.335Z,13.03
2018-07-22T21:40:08.731Z,14.17
2018-07-22T21:42:37.134Z,14.73
2018-07-22T21:45:06.435Z,14.63
2018-07-22T21:47:35.286Z,15.90
2018-07-22T21:50:04.265Z,14.63
2018-07-22T21:52:32.676Z,13.43
2018-07-22T21:55:01.229Z,13.90
2018-07-22T21:57:29.563Z,14.10
2018-07-22T21:59:57.896Z,16.97
2018-07-22T22:02:30.465Z,13.80
2018-07-22T22:04:59.094Z,14.33
2018-07-22T22:07:27.584Z,16.23
2018-07-22T22:09:55.947Z,14.87
2018-07-22T22:12:24.482Z,19.43
2018-07-22T22:14:53.248Z,21.30
2018-07-22T22:17:22.013Z,14.40
2018-07-22T22:19:50.504Z,15.47
2018-07-22T22:22:18.928Z,16.40
2018-07-22T22:24:47.687Z,21.53
2018-07-22T22:27:16.051Z,25.73
2018-07-22T22:29:45.266Z,29.50
2018-07-22T22:32:13.637Z,32.53
2018-07-22T22:34:42.074Z,27.47
2018-07-22T22:37:10.579Z,19.30
2018-07-22T22:39:39.030Z,15.53
2018-07-22T22:42:07.395Z,17.83
2018-07-22T22:44:35.971Z,26.33
2018-07-22T22:47:04.546Z,16.50
2018-07-22T22:49:33.000Z,16.57
2018-07-22T22:52:01.468Z,21.97
2018-07-22T22:54:29.835Z,18.70
2018-07-22T22:56:59.000Z,17.53
2018-07-22T22:59:27.379Z,21.33
2018-07-22T23:01:55.911Z,17.60
2018-07-22T23:04:24.327Z,19.30
2018-07-22T23:06:52.895Z,22.10
2018-07-22T23:09:21.356Z,19.63
2018-07-22T23:11:49.729Z,18.97
2018-07-22T23:14:18.421Z,19.43
2018-07-22T23:16:46.885Z,18.20
2018-07-22T23:19:15.256Z,23.37
2018-07-22T23:21:43.582Z,19.20
2018-07-22T23:24:12.243Z,23.37
2018-07-22T23:26:40.710Z,20.43
2018-07-22T23:29:09.161Z,18.17
2018-07-22T23:31:37.636Z,17.40
2018-07-22T23:34:07.044Z,17.37
2018-07-22T23:36:35.648Z,17.37
2018-07-22T23:39:06.115Z,17.63
2018-07-22T23:41:34.556Z,17.20
2018-07-22T23:44:02.979Z,17.97
2018-07-22T23:46:31.728Z,18.07
2018-07-22T23:49:00.210Z,22.47
2018-07-22T23:51:28.584Z,19.20
2018-07-22T23:53:56.906Z,18.07
2018-07-22T23:56:25.355Z,18.10
2018-07-22T23:58:54.389Z,18.27
